Time;durP1;ratioP1;P1;durP2;ratioP2;P2;SDS_P1;SDS_P2;PMS_P1;PMS_P2;Temp;Humidity;BMP_temperature;BMP_pressure;BME280_temperature;BME280_humidity;BME280_pressure;Samples;Min_cycle;Max_cycle;Signal;HPM_P1;HPM_P2
2024/02/12 00:00:22;;;;;;;0.10;0.10;;;3.50;99.90;;;;;;20683601;28;20104;-42
2024/02/12 00:10:31;;;;;;;0.20;0.10;;;3.70;99.90;;;;;;20683857;28;21177;-43
2024/02/12 00:20:33;;;;;;;0.10;0.10;;;3.90;99.90;;;;;;20683804;28;20161;-44
2024/02/12 00:30:35;;;;;;;0.28;0.10;;;3.90;99.90;;;;;;20681771;28;20065;-44
2024/02/12 00:40:40;;;;;;;0.20;0.10;;;3.80;99.90;;;;;;20663280;28;20221;-46
2024/02/12 00:50:42;;;;;;;0.10;0.00;;;3.60;99.90;;;;;;20679948;28;21351;-44
2024/02/12 01:00:44;;;;;;;0.13;0.10;;;3.40;99.90;;;;;;20678695;28;20060;-43
2024/02/12 01:11:02;;;;;;;0.10;0.10;;;3.40;99.90;;;;;;20680051;28;20696;-44
2024/02/12 01:21:07;;;;;;;0.13;0.10;;;3.30;99.90;;;;;;20661336;28;20071;-42
2024/02/12 01:31:19;;;;;;;0.08;0.08;;;3.00;99.90;;;;;;20682478;28;20691;-44
2024/02/12 01:41:21;;;;;;;0.17;0.10;;;2.80;99.90;;;;;;20680560;28;20044;-43
2024/02/12 01:51:24;;;;;;;0.10;0.10;;;2.70;99.90;;;;;;20676266;28;20153;-47
2024/02/12 02:01:29;;;;;;;0.25;0.03;;;2.40;99.90;;;;;;20675515;28;20076;-44
2024/02/12 02:11:32;;;;;;;0.10;0.10;;;2.20;99.90;;;;;;20675386;28;20036;-43
2024/02/12 02:21:34;;;;;;;0.20;0.10;;;2.20;99.90;;;;;;20673896;28;20116;-43
2024/02/12 02:31:36;;;;;;;0.38;0.22;;;1.90;99.90;;;;;;20674429;28;20068;-43
2024/02/12 02:41:45;;;;;;;0.15;0.10;;;1.70;99.90;;;;;;20675055;28;20095;-43
2024/02/12 02:51:47;;;;;;;0.30;0.20;;;1.50;99.90;;;;;;20669482;28;20078;-43
2024/02/12 03:01:49;;;;;;;0.20;0.10;;;1.30;99.90;;;;;;20672640;28;20044;-43
2024/02/12 03:11:54;;;;;;;0.30;0.20;;;1.00;99.90;;;;;;20671077;28;20150;-45
2024/02/12 03:21:56;;;;;;;1.67;0.10;;;0.80;99.90;;;;;;20666760;28;21076;-43
2024/02/12 03:31:58;;;;;;;0.20;0.10;;;1.10;99.90;;;;;;20655348;28;20037;-44
2024/02/12 03:42:00;;;;;;;0.60;0.10;;;1.50;99.90;;;;;;20671446;28;20585;-41
2024/02/12 04:02:22;;;;;;;0.20;0.10;;;1.00;99.90;;;;;;20668489;28;20040;-45
2024/02/12 04:12:25;;;;;;;0.32;0.20;;;0.50;99.90;;;;;;20664020;28;20095;-42
2024/02/12 04:22:28;;;;;;;0.10;0.00;;;0.40;99.90;;;;;;20647982;28;20141;-42
2024/02/12 04:32:31;;;;;;;0.10;0.05;;;0.30;99.90;;;;;;20665003;28;20091;-43
2024/02/12 04:42:33;;;;;;;0.13;0.10;;;0.30;99.90;;;;;;20584576;28;20821;-46
2024/02/12 04:52:35;;;;;;;0.20;0.10;;;0.30;99.90;;;;;;20585443;28;20180;-44
2024/02/12 05:02:40;;;;;;;0.10;0.10;;;0.20;99.90;;;;;;20585085;28;20092;-42
2024/02/12 05:12:42;;;;;;;0.20;0.10;;;0.10;99.90;;;;;;20584266;28;20236;-44
2024/02/12 05:22:43;;;;;;;0.17;0.10;;;0.10;99.90;;;;;;20677668;28;20096;-43
2024/02/12 05:32:45;;;;;;;0.15;0.10;;;0.00;99.90;;;;;;20659045;28;20084;-42
2024/02/12 05:42:47;;;;;;;0.10;0.00;;;-0.20;99.90;;;;;;20659845;28;20091;-43
2024/02/12 05:52:52;;;;;;;0.52;0.10;;;-0.30;99.90;;;;;;20675082;28;21031;-43
2024/02/12 06:02:54;;;;;;;0.10;0.10;;;-0.60;99.90;;;;;;20676682;28;20247;-44
2024/02/12 06:12:57;;;;;;;0.20;0.10;;;-0.70;99.90;;;;;;20673627;28;20169;-43
2024/02/12 06:23:02;;;;;;;0.10;0.10;;;-0.70;99.90;;;;;;20669018;28;20080;-43
2024/02/12 06:33:05;;;;;;;0.20;0.08;;;-0.70;99.90;;;;;;20670005;28;20488;-43
2024/02/12 06:43:08;;;;;;;0.28;0.10;;;-0.70;99.90;;;;;;20670009;28;20037;-45
2024/02/12 06:53:13;;;;;;;1.33;0.30;;;-0.70;99.90;;;;;;20666703;28;20098;-43
2024/02/12 07:03:16;;;;;;;1.15;0.40;;;-0.70;99.90;;;;;;20667517;28;20124;-44
2024/02/12 07:13:18;;;;;;;0.47;0.40;;;-0.60;99.90;;;;;;20668153;28;21402;-42
2024/02/12 07:23:20;;;;;;;2.05;0.30;;;-0.50;99.90;;;;;;20664292;28;20048;-43
2024/02/12 07:33:26;;;;;;;0.70;0.40;;;-0.40;99.90;;;;;;20665603;28;20111;-43
2024/02/12 07:43:28;;;;;;;1.17;0.20;;;0.00;99.90;;;;;;20663030;28;20434;-43
2024/02/12 07:53:30;;;;;;;0.60;0.20;;;0.50;99.90;;;;;;20665945;28;20221;-46
2024/02/12 08:03:35;;;;;;;0.77;0.10;;;1.50;99.90;;;;;;20666083;28;20116;-46
2024/02/12 08:13:37;;;;;;;0.32;0.20;;;2.70;99.90;;;;;;20656026;28;20712;-43
2024/02/12 08:23:39;;;;;;;0.20;0.20;;;4.30;99.90;;;;;;20679389;28;20092;-45
2024/02/12 08:33:41;;;;;;;1.77;0.30;;;5.50;99.90;;;;;;20676161;28;20068;-43
2024/02/12 08:43:43;;;;;;;0.40;0.30;;;5.70;99.90;;;;;;20677155;28;20104;-46
2024/02/12 08:53:45;;;;;;;0.80;0.25;;;6.10;99.90;;;;;;20679681;28;20041;-44
2024/02/12 09:03:48;;;;;;;0.20;0.20;;;6.50;99.90;;;;;;20678233;28;20174;-47
2024/02/12 09:13:50;;;;;;;0.40;0.20;;;6.50;99.90;;;;;;20660959;28;20068;-43
2024/02/12 09:23:52;;;;;;;0.35;0.20;;;6.60;99.90;;;;;;20673011;28;20488;-44
2024/02/12 09:33:55;;;;;;;1.85;0.20;;;6.70;99.90;;;;;;20674217;28;20173;-46
2024/02/12 09:43:59;;;;;;;0.20;0.15;;;6.90;99.90;;;;;;20674552;28;20041;-43
2024/02/12 09:54:04;;;;;;;0.10;0.05;;;7.60;99.90;;;;;;20669904;28;20091;-43
2024/02/12 10:04:06;;;;;;;0.10;0.10;;;7.90;99.90;;;;;;20669485;28;20036;-45
2024/02/12 10:14:31;;;;;;;0.00;0.00;;;8.10;99.90;;;;;;20669384;28;20170;-43
2024/02/12 10:24:56;;;;;;;0.10;0.00;;;8.30;99.90;;;;;;20667911;28;20076;-43
2024/02/12 10:35:20;;;;;;;0.30;0.10;;;8.70;99.70;;;;;;20664065;28;20095;-43
2024/02/12 10:45:53;;;;;;;0.10;0.10;;;9.10;99.90;;;;;;20649485;28;20072;-45
2024/02/12 10:56:15;;;;;;;1.08;0.17;;;9.20;99.60;;;;;;20648044;28;20049;-42
2024/02/12 11:06:18;;;;;;;0.45;0.10;;;9.50;99.30;;;;;;20670261;28;21252;-42
2024/02/12 11:16:20;;;;;;;0.88;0.50;;;9.90;99.60;;;;;;20666597;28;20426;-43
2024/02/12 11:26:22;;;;;;;1.98;0.70;;;10.40;99.90;;;;;;20665652;28;21655;-44
2024/02/12 11:36:24;;;;;;;2.58;1.40;;;10.30;99.90;;;;;;20649533;28;20033;-44
2024/02/12 11:46:26;;;;;;;1.75;1.08;;;10.50;99.90;;;;;;20677063;28;20114;-44
2024/02/12 11:56:28;;;;;;;2.17;1.52;;;10.70;99.90;;;;;;20683110;28;21152;-44
2024/02/12 12:06:31;;;;;;;1.92;1.40;;;11.00;99.90;;;;;;20665009;28;20095;-43
2024/02/12 12:16:35;;;;;;;1.88;1.63;;;11.10;99.90;;;;;;20677458;28;20048;-42
2024/02/12 12:26:37;;;;;;;1.60;1.42;;;11.10;99.90;;;;;;20660047;28;20144;-42
2024/02/12 12:36:39;;;;;;;2.50;2.22;;;10.00;99.90;;;;;;20681177;28;20032;-42
2024/02/12 12:46:40;;;;;;;3.33;1.73;;;8.80;99.90;;;;;;20676580;28;20041;-41
2024/02/12 12:56:42;;;;;;;3.92;2.28;;;7.90;99.90;;;;;;20671953;28;20455;-41
2024/02/12 13:06:44;;;;;;;2.78;2.45;;;7.10;99.90;;;;;;20658049;28;20146;-41
2024/02/12 13:16:50;;;;;;;2.88;2.58;;;6.60;99.90;;;;;;20675305;28;20111;-42
2024/02/12 13:26:51;;;;;;;4.47;2.83;;;6.30;99.90;;;;;;20673718;28;20053;-41
2024/02/12 13:36:53;;;;;;;3.38;2.88;;;6.20;99.90;;;;;;20672255;28;20122;-40
2024/02/12 13:46:56;;;;;;;4.30;2.33;;;6.30;99.90;;;;;;20649405;28;21249;-45
2024/02/12 13:56:58;;;;;;;3.35;2.60;;;6.40;99.90;;;;;;20671492;28;20132;-42
2024/02/12 14:07:00;;;;;;;3.50;2.78;;;6.00;99.90;;;;;;20668922;28;20060;-42
2024/02/12 14:17:02;;;;;;;2.28;2.00;;;6.10;99.90;;;;;;20670184;28;20495;-47
2024/02/12 14:27:05;;;;;;;2.50;2.30;;;6.20;99.90;;;;;;20669014;28;20072;-44
2024/02/12 14:37:10;;;;;;;2.58;2.38;;;6.30;99.90;;;;;;20655522;28;20119;-42
2024/02/12 14:47:12;;;;;;;2.72;2.20;;;6.50;99.90;;;;;;20631103;28;21214;-42
2024/02/12 14:57:14;;;;;;;3.60;2.20;;;6.40;99.90;;;;;;20667735;28;20065;-42
2024/02/12 15:07:16;;;;;;;2.30;2.03;;;6.10;99.90;;;;;;20664205;28;20128;-42
2024/02/12 15:17:19;;;;;;;7.75;2.97;;;5.80;99.90;;;;;;20668604;28;20072;-42
2024/02/12 15:27:20;;;;;;;3.80;3.40;;;5.60;99.90;;;;;;20663172;28;21146;-42
2024/02/12 15:37:22;;;;;;;4.07;2.97;;;5.60;99.90;;;;;;20664162;28;20146;-43
2024/02/12 15:47:30;;;;;;;4.63;3.33;;;5.40;99.90;;;;;;20665206;28;20844;-43
2024/02/12 15:57:32;;;;;;;5.28;4.40;;;5.30;99.90;;;;;;20664619;28;20181;-41
2024/02/12 16:07:33;;;;;;;6.85;5.30;;;5.00;99.90;;;;;;20648266;28;20550;-42
2024/02/12 16:17:35;;;;;;;13.23;8.40;;;4.80;99.90;;;;;;20663469;28;20154;-45
2024/02/12 16:27:37;;;;;;;9.90;7.15;;;4.60;99.90;;;;;;20648885;28;20914;-42
2024/02/12 16:37:39;;;;;;;10.82;7.95;;;4.50;99.90;;;;;;20679424;28;20111;-42
2024/02/12 16:47:41;;;;;;;181.88;17.02;;;4.40;99.90;;;;;;20660212;28;20107;-45
2024/02/12 16:57:43;;;;;;;13.50;8.75;;;4.20;99.90;;;;;;20679006;28;21633;-44
2024/02/12 17:07:45;;;;;;;11.05;8.25;;;4.20;99.90;;;;;;20680031;28;20126;-43
2024/02/12 17:17:53;;;;;;;10.93;8.50;;;4.10;99.90;;;;;;20679033;28;20061;-44
2024/02/12 17:27:56;;;;;;;10.82;8.63;;;3.90;99.90;;;;;;20677405;28;20076;-41
2024/02/12 17:37:58;;;;;;;13.07;10.00;;;3.70;99.90;;;;;;20677469;28;20102;-45
2024/02/12 17:48:00;;;;;;;10.52;7.50;;;3.30;99.90;;;;;;20675435;28;21124;-44
2024/02/12 17:58:03;;;;;;;9.35;7.50;;;2.90;99.90;;;;;;20659530;28;21167;-41
2024/02/12 18:08:09;;;;;;;9.80;6.28;;;2.50;99.90;;;;;;20668455;28;20083;-42
2024/02/12 18:18:10;;;;;;;6.28;4.38;;;2.10;99.90;;;;;;20656157;28;21562;-41
2024/02/12 18:28:13;;;;;;;6.82;4.13;;;1.70;99.90;;;;;;20672662;28;20064;-43
2024/02/12 18:38:20;;;;;;;5.25;4.30;;;1.40;99.90;;;;;;20673916;28;20061;-43
2024/02/12 18:48:22;;;;;;;7.03;4.03;;;1.20;99.90;;;;;;20674543;28;20107;-42
2024/02/12 18:58:23;;;;;;;4.53;3.35;;;1.00;99.90;;;;;;20652898;28;20064;-42
2024/02/12 19:08:26;;;;;;;4.13;3.05;;;0.90;99.90;;;;;;20652021;28;20126;-43
2024/02/12 19:18:27;;;;;;;2.70;2.05;;;0.80;99.90;;;;;;20672314;28;20124;-43
2024/02/12 19:28:29;;;;;;;5.70;4.00;;;0.70;99.90;;;;;;20669426;28;20065;-42
2024/02/12 19:38:31;;;;;;;4.15;2.65;;;0.70;99.90;;;;;;20668541;28;20083;-42
2024/02/12 19:48:33;;;;;;;3.97;2.60;;;0.70;99.90;;;;;;20670196;28;20071;-42
2024/02/12 19:58:35;;;;;;;3.97;2.80;;;0.90;99.90;;;;;;20667112;28;21137;-44
2024/02/12 20:08:40;;;;;;;4.32;2.95;;;1.00;99.90;;;;;;20676711;28;20177;-45
2024/02/12 20:18:43;;;;;;;3.60;2.75;;;1.30;99.90;;;;;;20667411;28;20064;-42
2024/02/12 20:28:47;;;;;;;4.10;3.03;;;1.40;99.90;;;;;;20683243;28;20037;-42
2024/02/12 20:38:48;;;;;;;8.25;4.20;;;1.50;99.90;;;;;;20682534;28;21089;-43
2024/02/12 20:48:50;;;;;;;5.82;4.20;;;1.60;99.90;;;;;;20664513;28;20033;-43
2024/02/12 20:58:52;;;;;;;6.13;4.50;;;1.40;99.90;;;;;;20679945;28;21139;-43
2024/02/12 21:08:57;;;;;;;5.88;4.00;;;1.60;99.90;;;;;;20681463;28;21627;-45
2024/02/12 21:18:59;;;;;;;5.45;4.38;;;1.40;99.90;;;;;;20679305;28;20075;-43
2024/02/12 21:29:06;;;;;;;5.10;3.30;;;1.60;99.90;;;;;;20676945;28;20068;-44
2024/02/12 21:39:09;;;;;;;4.30;2.97;;;1.60;99.90;;;;;;20676262;28;20634;-43
2024/02/12 21:49:11;;;;;;;3.28;1.50;;;1.50;99.90;;;;;;20677117;28;20073;-45
2024/02/12 21:59:16;;;;;;;3.50;2.00;;;1.60;99.90;;;;;;20677962;28;20033;-42
2024/02/12 22:09:17;;;;;;;1.35;0.95;;;1.60;99.90;;;;;;20674132;28;20065;-42
2024/02/12 22:19:19;;;;;;;2.20;1.38;;;1.90;99.90;;;;;;20672941;28;20081;-45
2024/02/12 22:29:24;;;;;;;4.15;2.75;;;1.70;99.90;;;;;;20671028;28;20053;-44
2024/02/12 22:39:27;;;;;;;6.22;3.42;;;1.40;99.90;;;;;;20671744;28;20048;-43
2024/02/12 22:49:29;;;;;;;5.45;3.33;;;1.40;99.90;;;;;;20672991;28;21979;-42
2024/02/12 22:59:33;;;;;;;5.97;4.15;;;1.20;99.90;;;;;;20668921;28;20049;-44
2024/02/12 23:09:35;;;;;;;7.60;5.45;;;1.00;99.90;;;;;;20669370;28;20068;-43
2024/02/12 23:19:38;;;;;;;5.57;3.85;;;1.10;99.90;;;;;;20668389;28;20052;-42
2024/02/12 23:29:40;;;;;;;4.68;3.50;;;1.30;99.90;;;;;;20669346;28;21169;-43
2024/02/12 23:39:42;;;;;;;3.38;2.60;;;1.30;99.90;;;;;;20672578;28;20479;-42
2024/02/12 23:49:44;;;;;;;1.90;1.30;;;1.40;99.90;;;;;;20684229;28;20114;-44
2024/02/12 23:59:45;;;;;;;3.05;2.10;;;2.10;99.90;;;;;;20687924;28;20094;-42
